Terminal Aerodrome Forecast
Issued by NWS

Home | Current Version | Previous Version | Graphics & Text | Print | Product List | Glossary On
Versions: 1 2 3 4 5 6 7 8 9 10 11 12 13 14 15
894
FTUS43 KTOP 241121
TAFFOE
TAF
KFOE 241121Z 2412/2512 17011KT P6SM FEW250 WS020/19042KT
     FM241400 18021G33KT P6SM FEW250
     FM242300 18014G22KT P6SM FEW250
     FM250200 17010KT P6SM SCT250
     FM250600 15010KT P6SM BKN150 WS015/19043KT=

USA.gov is the U.S. government's official web portal to all federal, state and local government web resources and services.